Terminal Aerodrome Forecast
Issued by NWS

Home | Current Version | Previous Version | Text Only | Print | Product List | Glossary On
Versions: 1 2 3 4 5 6 7 8 9 10 11 12 13 14 15 16 17 18 19 20 21
219
FTUS41 KCAR 081916 AAC
TAFHUL
TAF AMD
KHUL 081916Z 0819/0918 05011KT P6SM SCT025 BKN250
     FM082100 04013G20KT P6SM BKN015
     FM090200 01012G22KT 2SM -SN OVC010
     FM090400 01012G22KT 1SM -SN OVC010
     FM091200 02009KT 1SM -SN OVC008
     FM091600 03010KT 2SM -SN OVC008=

USA.gov is the U.S. government's official web portal to all federal, state and local government web resources and services.